Terminal Aerodrome Forecast
Issued by NWS Austin/San Antonio, TX

Home | Current Version | Previous Version | Text Only | Print | Product List | Glossary On
Versions: 1 2 3 4 5 6 7 8 9 10 11 12 13 14
000
FTUS44 KEWX 272300 RRA
TAFAUS
TAF
KAUS 272341Z 2800/2906 36014G22KT P6SM OVC035
     FM280100 36014G20KT P6SM OVC035
     FM280500 36017KT P6SM VCSH OVC040
     FM280800 36016KT P6SM -RA OVC025
     FM281600 35008KT P6SM OVC025
     FM281900 36013KT P6SM BKN100
     FM290300 03003KT P6SM SCT200=

USA.gov is the U.S. government's official web portal to all federal, state and local government web resources and services.